<?xml version="1.0" encoding="UTF-8" standalone="no" ?>
<gpx xmlns="http://www.topografix.com/GPX/1/1" xmlns:xsi="http://www.w3.org/2001/XMLSchema-instance" xsi:schemaLocation="http://www.topografix.com/GPX/1/1 http://www.topografix.com/GPX/1/1/gpx.xsd" version="1.1" creator="VisuGPX - https://www.visugpx.com">
  <metadata>
    <name>83 - V - Tourtour </name>
    <desc><![CDATA[83 - V - Tourtour : le Grand Defens 
2023-01-06]]></desc>
  </metadata>
  <trk>
    <name><![CDATA[Tourtour - le Grand Defens 2023-01-06-01]]></name>
    <trkseg>
      <trkpt lat="43.59445" lon="6.304">
        <ele>668.1</ele>
        <time>2023-01-06T12:57:50Z</time>
      </trkpt>
      <trkpt lat="43.59445" lon="6.304">
        <ele>668.1</ele>
        <time>2023-01-06T12:57:51Z</time>
      </trkpt>
      <trkpt lat="43.59439" lon="6.30409">
        <ele>668</ele>
        <time>2023-01-06T13:00:47Z</time>
      </trkpt>
      <trkpt lat="43.59443" lon="6.30421">
        <ele>668.4</ele>
        <time>2023-01-06T13:01:22Z</time>
      </trkpt>
      <trkpt lat="43.59447" lon="6.30433">
        <ele>668.9</ele>
        <time>2023-01-06T13:01:30Z</time>
      </trkpt>
      <trkpt lat="43.59448" lon="6.30445">
        <ele>669.6</ele>
        <time>2023-01-06T13:01:39Z</time>
      </trkpt>
      <trkpt lat="43.59446" lon="6.30459">
        <ele>670.1</ele>
        <time>2023-01-06T13:01:53Z</time>
      </trkpt>
      <trkpt lat="43.59445" lon="6.30472">
        <ele>670.1</ele>
        <time>2023-01-06T13:02:19Z</time>
      </trkpt>
      <trkpt lat="43.59444" lon="6.30485">
        <ele>670</ele>
        <time>2023-01-06T13:02:28Z</time>
      </trkpt>
      <trkpt lat="43.59441" lon="6.30498">
        <ele>669.5</ele>
        <time>2023-01-06T13:02:37Z</time>
      </trkpt>
      <trkpt lat="43.59439" lon="6.3051">
        <ele>669</ele>
        <time>2023-01-06T13:02:45Z</time>
      </trkpt>
      <trkpt lat="43.59437" lon="6.30522">
        <ele>668.7</ele>
        <time>2023-01-06T13:02:54Z</time>
      </trkpt>
      <trkpt lat="43.59435" lon="6.30535">
        <ele>668.6</ele>
        <time>2023-01-06T13:03:04Z</time>
      </trkpt>
      <trkpt lat="43.59434" lon="6.30548">
        <ele>668.3</ele>
        <time>2023-01-06T13:03:12Z</time>
      </trkpt>
      <trkpt lat="43.59432" lon="6.30561">
        <ele>668.1</ele>
        <time>2023-01-06T13:03:21Z</time>
      </trkpt>
      <trkpt lat="43.59431" lon="6.30575">
        <ele>667.9</ele>
        <time>2023-01-06T13:03:29Z</time>
      </trkpt>
      <trkpt lat="43.59428" lon="6.30588">
        <ele>667.7</ele>
        <time>2023-01-06T13:03:37Z</time>
      </trkpt>
      <trkpt lat="43.59429" lon="6.30601">
        <ele>667.6</ele>
        <time>2023-01-06T13:03:45Z</time>
      </trkpt>
      <trkpt lat="43.59426" lon="6.30614">
        <ele>667.6</ele>
        <time>2023-01-06T13:03:54Z</time>
      </trkpt>
      <trkpt lat="43.5942" lon="6.30624">
        <ele>667.5</ele>
        <time>2023-01-06T13:04:04Z</time>
      </trkpt>
      <trkpt lat="43.59413" lon="6.30632">
        <ele>667.4</ele>
        <time>2023-01-06T13:04:12Z</time>
      </trkpt>
      <trkpt lat="43.59404" lon="6.30637">
        <ele>667.1</ele>
        <time>2023-01-06T13:04:21Z</time>
      </trkpt>
      <trkpt lat="43.59394" lon="6.30642">
        <ele>666.9</ele>
        <time>2023-01-06T13:04:30Z</time>
      </trkpt>
      <trkpt lat="43.59385" lon="6.30648">
        <ele>666.9</ele>
        <time>2023-01-06T13:04:39Z</time>
      </trkpt>
      <trkpt lat="43.59391" lon="6.30659">
        <ele>667.2</ele>
        <time>2023-01-06T13:04:53Z</time>
      </trkpt>
      <trkpt lat="43.59399" lon="6.30666">
        <ele>667.6</ele>
        <time>2023-01-06T13:05:02Z</time>
      </trkpt>
      <trkpt lat="43.59407" lon="6.30672">
        <ele>668.1</ele>
        <time>2023-01-06T13:05:12Z</time>
      </trkpt>
      <trkpt lat="43.59415" lon="6.30679">
        <ele>669.5</ele>
        <time>2023-01-06T13:05:23Z</time>
      </trkpt>
      <trkpt lat="43.59424" lon="6.30685">
        <ele>670.5</ele>
        <time>2023-01-06T13:05:36Z</time>
      </trkpt>
      <trkpt lat="43.59433" lon="6.30685">
        <ele>670.8</ele>
        <time>2023-01-06T13:05:45Z</time>
      </trkpt>
      <trkpt lat="43.59441" lon="6.3069">
        <ele>671.3</ele>
        <time>2023-01-06T13:05:56Z</time>
      </trkpt>
      <trkpt lat="43.59447" lon="6.307">
        <ele>671.8</ele>
        <time>2023-01-06T13:06:06Z</time>
      </trkpt>
      <trkpt lat="43.59453" lon="6.30709">
        <ele>672.5</ele>
        <time>2023-01-06T13:06:15Z</time>
      </trkpt>
      <trkpt lat="43.59457" lon="6.30721">
        <ele>673.9</ele>
        <time>2023-01-06T13:06:27Z</time>
      </trkpt>
      <trkpt lat="43.59462" lon="6.30733">
        <ele>674.5</ele>
        <time>2023-01-06T13:06:37Z</time>
      </trkpt>
      <trkpt lat="43.59467" lon="6.30744">
        <ele>675.3</ele>
        <time>2023-01-06T13:06:46Z</time>
      </trkpt>
      <trkpt lat="43.59473" lon="6.30754">
        <ele>675.9</ele>
        <time>2023-01-06T13:06:55Z</time>
      </trkpt>
      <trkpt lat="43.5948" lon="6.30763">
        <ele>676.6</ele>
        <time>2023-01-06T13:07:04Z</time>
      </trkpt>
      <trkpt lat="43.59486" lon="6.30774">
        <ele>677.2</ele>
        <time>2023-01-06T13:07:13Z</time>
      </trkpt>
      <trkpt lat="43.59486" lon="6.30787">
        <ele>677.9</ele>
        <time>2023-01-06T13:07:30Z</time>
      </trkpt>
      <trkpt lat="43.59483" lon="6.308">
        <ele>678.6</ele>
        <time>2023-01-06T13:07:42Z</time>
      </trkpt>
      <trkpt lat="43.5948" lon="6.30812">
        <ele>678.8</ele>
        <time>2023-01-06T13:07:54Z</time>
      </trkpt>
      <trkpt lat="43.59482" lon="6.30825">
        <ele>679.1</ele>
        <time>2023-01-06T13:08:02Z</time>
      </trkpt>
      <trkpt lat="43.59487" lon="6.30836">
        <ele>679.5</ele>
        <time>2023-01-06T13:08:11Z</time>
      </trkpt>
      <trkpt lat="43.59494" lon="6.30847">
        <ele>680.2</ele>
        <time>2023-01-06T13:08:22Z</time>
      </trkpt>
      <trkpt lat="43.59497" lon="6.3086">
        <ele>679.8</ele>
        <time>2023-01-06T13:08:33Z</time>
      </trkpt>
      <trkpt lat="43.59496" lon="6.30872">
        <ele>680.8</ele>
        <time>2023-01-06T13:08:48Z</time>
      </trkpt>
      <trkpt lat="43.59494" lon="6.30884">
        <ele>683.2</ele>
        <time>2023-01-06T13:09:11Z</time>
      </trkpt>
      <trkpt lat="43.59491" lon="6.30896">
        <ele>683.9</ele>
        <time>2023-01-06T13:09:25Z</time>
      </trkpt>
      <trkpt lat="43.59484" lon="6.30906">
        <ele>683.7</ele>
        <time>2023-01-06T13:09:35Z</time>
      </trkpt>
      <trkpt lat="43.59482" lon="6.30919">
        <ele>683.3</ele>
        <time>2023-01-06T13:10:02Z</time>
      </trkpt>
      <trkpt lat="43.59476" lon="6.30929">
        <ele>683.9</ele>
        <time>2023-01-06T13:10:23Z</time>
      </trkpt>
      <trkpt lat="43.5948" lon="6.30918">
        <ele>683.4</ele>
        <time>2023-01-06T13:11:01Z</time>
      </trkpt>
      <trkpt lat="43.59487" lon="6.30909">
        <ele>683.5</ele>
        <time>2023-01-06T13:11:35Z</time>
      </trkpt>
      <trkpt lat="43.59496" lon="6.30914">
        <ele>684.5</ele>
        <time>2023-01-06T13:11:53Z</time>
      </trkpt>
      <trkpt lat="43.59501" lon="6.30925">
        <ele>686.1</ele>
        <time>2023-01-06T13:12:06Z</time>
      </trkpt>
      <trkpt lat="43.59506" lon="6.30935">
        <ele>687.4</ele>
        <time>2023-01-06T13:12:18Z</time>
      </trkpt>
      <trkpt lat="43.59508" lon="6.30947">
        <ele>689</ele>
        <time>2023-01-06T13:12:31Z</time>
      </trkpt>
      <trkpt lat="43.59511" lon="6.3096">
        <ele>690.9</ele>
        <time>2023-01-06T13:12:45Z</time>
      </trkpt>
      <trkpt lat="43.59515" lon="6.30972">
        <ele>692</ele>
        <time>2023-01-06T13:12:58Z</time>
      </trkpt>
      <trkpt lat="43.59521" lon="6.30982">
        <ele>692.4</ele>
        <time>2023-01-06T13:14:02Z</time>
      </trkpt>
      <trkpt lat="43.59527" lon="6.30993">
        <ele>692.2</ele>
        <time>2023-01-06T13:14:10Z</time>
      </trkpt>
      <trkpt lat="43.59531" lon="6.31005">
        <ele>691.9</ele>
        <time>2023-01-06T13:14:22Z</time>
      </trkpt>
      <trkpt lat="43.59536" lon="6.31016">
        <ele>692</ele>
        <time>2023-01-06T13:14:31Z</time>
      </trkpt>
      <trkpt lat="43.59544" lon="6.31024">
        <ele>692.5</ele>
        <time>2023-01-06T13:14:40Z</time>
      </trkpt>
      <trkpt lat="43.59549" lon="6.31035">
        <ele>693.5</ele>
        <time>2023-01-06T13:14:50Z</time>
      </trkpt>
      <trkpt lat="43.59553" lon="6.31047">
        <ele>693.7</ele>
        <time>2023-01-06T13:15:01Z</time>
      </trkpt>
      <trkpt lat="43.59558" lon="6.31058">
        <ele>693.5</ele>
        <time>2023-01-06T13:15:09Z</time>
      </trkpt>
      <trkpt lat="43.59562" lon="6.31069">
        <ele>693.7</ele>
        <time>2023-01-06T13:15:18Z</time>
      </trkpt>
      <trkpt lat="43.59565" lon="6.31081">
        <ele>694</ele>
        <time>2023-01-06T13:15:30Z</time>
      </trkpt>
      <trkpt lat="43.59569" lon="6.31092">
        <ele>694</ele>
        <time>2023-01-06T13:15:40Z</time>
      </trkpt>
      <trkpt lat="43.59576" lon="6.31102">
        <ele>693.8</ele>
        <time>2023-01-06T13:15:50Z</time>
      </trkpt>
      <trkpt lat="43.59582" lon="6.31112">
        <ele>693.3</ele>
        <time>2023-01-06T13:16:10Z</time>
      </trkpt>
      <trkpt lat="43.59585" lon="6.31124">
        <ele>693.1</ele>
        <time>2023-01-06T13:16:21Z</time>
      </trkpt>
      <trkpt lat="43.59592" lon="6.31133">
        <ele>693.6</ele>
        <time>2023-01-06T13:16:31Z</time>
      </trkpt>
      <trkpt lat="43.59599" lon="6.3114">
        <ele>694</ele>
        <time>2023-01-06T13:16:37Z</time>
      </trkpt>
      <trkpt lat="43.59607" lon="6.31149">
        <ele>694.7</ele>
        <time>2023-01-06T13:16:46Z</time>
      </trkpt>
      <trkpt lat="43.59615" lon="6.31157">
        <ele>694.7</ele>
        <time>2023-01-06T13:16:54Z</time>
      </trkpt>
      <trkpt lat="43.59622" lon="6.31165">
        <ele>694.8</ele>
        <time>2023-01-06T13:17:01Z</time>
      </trkpt>
      <trkpt lat="43.59626" lon="6.31177">
        <ele>695.9</ele>
        <time>2023-01-06T13:17:13Z</time>
      </trkpt>
      <trkpt lat="43.5963" lon="6.31188">
        <ele>697.6</ele>
        <time>2023-01-06T13:17:30Z</time>
      </trkpt>
      <trkpt lat="43.59627" lon="6.312">
        <ele>700.8</ele>
        <time>2023-01-06T13:18:18Z</time>
      </trkpt>
      <trkpt lat="43.59618" lon="6.31205">
        <ele>702</ele>
        <time>2023-01-06T13:18:33Z</time>
      </trkpt>
      <trkpt lat="43.59613" lon="6.31216">
        <ele>702.7</ele>
        <time>2023-01-06T13:18:46Z</time>
      </trkpt>
      <trkpt lat="43.59618" lon="6.31227">
        <ele>703.7</ele>
        <time>2023-01-06T13:19:02Z</time>
      </trkpt>
      <trkpt lat="43.59626" lon="6.31234">
        <ele>705.3</ele>
        <time>2023-01-06T13:19:16Z</time>
      </trkpt>
      <trkpt lat="43.59634" lon="6.3124">
        <ele>707.1</ele>
        <time>2023-01-06T13:19:30Z</time>
      </trkpt>
      <trkpt lat="43.59642" lon="6.31245">
        <ele>708.3</ele>
        <time>2023-01-06T13:19:41Z</time>
      </trkpt>
      <trkpt lat="43.5965" lon="6.31254">
        <ele>708.9</ele>
        <time>2023-01-06T13:19:55Z</time>
      </trkpt>
      <trkpt lat="43.59657" lon="6.31262">
        <ele>710.5</ele>
        <time>2023-01-06T13:20:05Z</time>
      </trkpt>
      <trkpt lat="43.59664" lon="6.31271">
        <ele>711.8</ele>
        <time>2023-01-06T13:20:15Z</time>
      </trkpt>
      <trkpt lat="43.59672" lon="6.31279">
        <ele>713.1</ele>
        <time>2023-01-06T13:20:26Z</time>
      </trkpt>
      <trkpt lat="43.59679" lon="6.31285">
        <ele>715.2</ele>
        <time>2023-01-06T13:20:40Z</time>
      </trkpt>
      <trkpt lat="43.59686" lon="6.31294">
        <ele>716.5</ele>
        <time>2023-01-06T13:20:54Z</time>
      </trkpt>
      <trkpt lat="43.59691" lon="6.31306">
        <ele>718.4</ele>
        <time>2023-01-06T13:21:08Z</time>
      </trkpt>
      <trkpt lat="43.59695" lon="6.31317">
        <ele>720.3</ele>
        <time>2023-01-06T13:21:24Z</time>
      </trkpt>
      <trkpt lat="43.59701" lon="6.31327">
        <ele>721.8</ele>
        <time>2023-01-06T13:21:36Z</time>
      </trkpt>
      <trkpt lat="43.59706" lon="6.31338">
        <ele>723.5</ele>
        <time>2023-01-06T13:21:49Z</time>
      </trkpt>
      <trkpt lat="43.5971" lon="6.31349">
        <ele>725.5</ele>
        <time>2023-01-06T13:22:04Z</time>
      </trkpt>
      <trkpt lat="43.59709" lon="6.31361">
        <ele>728</ele>
        <time>2023-01-06T13:22:25Z</time>
      </trkpt>
      <trkpt lat="43.59701" lon="6.31368">
        <ele>727.4</ele>
        <time>2023-01-06T13:22:43Z</time>
      </trkpt>
      <trkpt lat="43.5971" lon="6.31368">
        <ele>728.4</ele>
        <time>2023-01-06T13:25:33Z</time>
      </trkpt>
      <trkpt lat="43.59719" lon="6.3137">
        <ele>727.8</ele>
        <time>2023-01-06T13:26:59Z</time>
      </trkpt>
      <trkpt lat="43.59718" lon="6.31383">
        <ele>730.1</ele>
        <time>2023-01-06T13:28:12Z</time>
      </trkpt>
      <trkpt lat="43.59716" lon="6.31395">
        <ele>731.6</ele>
        <time>2023-01-06T13:28:25Z</time>
      </trkpt>
      <trkpt lat="43.59718" lon="6.31407">
        <ele>733.1</ele>
        <time>2023-01-06T13:28:40Z</time>
      </trkpt>
      <trkpt lat="43.59719" lon="6.31421">
        <ele>735</ele>
        <time>2023-01-06T13:28:56Z</time>
      </trkpt>
      <trkpt lat="43.5972" lon="6.31434">
        <ele>737.1</ele>
        <time>2023-01-06T13:29:11Z</time>
      </trkpt>
      <trkpt lat="43.59722" lon="6.31447">
        <ele>738.8</ele>
        <time>2023-01-06T13:29:26Z</time>
      </trkpt>
      <trkpt lat="43.59723" lon="6.31459">
        <ele>740.8</ele>
        <time>2023-01-06T13:29:40Z</time>
      </trkpt>
      <trkpt lat="43.59726" lon="6.31472">
        <ele>741.8</ele>
        <time>2023-01-06T13:29:52Z</time>
      </trkpt>
      <trkpt lat="43.59728" lon="6.31484">
        <ele>743.2</ele>
        <time>2023-01-06T13:30:04Z</time>
      </trkpt>
      <trkpt lat="43.59731" lon="6.31497">
        <ele>743.9</ele>
        <time>2023-01-06T13:30:15Z</time>
      </trkpt>
      <trkpt lat="43.59737" lon="6.31507">
        <ele>745.6</ele>
        <time>2023-01-06T13:30:28Z</time>
      </trkpt>
      <trkpt lat="43.59742" lon="6.31518">
        <ele>746.7</ele>
        <time>2023-01-06T13:30:38Z</time>
      </trkpt>
      <trkpt lat="43.59747" lon="6.31529">
        <ele>747.4</ele>
        <time>2023-01-06T13:30:48Z</time>
      </trkpt>
      <trkpt lat="43.59753" lon="6.31539">
        <ele>748.7</ele>
        <time>2023-01-06T13:31:00Z</time>
      </trkpt>
      <trkpt lat="43.59757" lon="6.31551">
        <ele>749.6</ele>
        <time>2023-01-06T13:31:10Z</time>
      </trkpt>
      <trkpt lat="43.59761" lon="6.31562">
        <ele>750.8</ele>
        <time>2023-01-06T13:31:19Z</time>
      </trkpt>
      <trkpt lat="43.59761" lon="6.31576">
        <ele>752.4</ele>
        <time>2023-01-06T13:31:30Z</time>
      </trkpt>
      <trkpt lat="43.59762" lon="6.31589">
        <ele>752.8</ele>
        <time>2023-01-06T13:31:39Z</time>
      </trkpt>
      <trkpt lat="43.59767" lon="6.31599">
        <ele>753.8</ele>
        <time>2023-01-06T13:31:47Z</time>
      </trkpt>
      <trkpt lat="43.59773" lon="6.31608">
        <ele>754.6</ele>
        <time>2023-01-06T13:31:56Z</time>
      </trkpt>
      <trkpt lat="43.5978" lon="6.31618">
        <ele>754.7</ele>
        <time>2023-01-06T13:32:06Z</time>
      </trkpt>
      <trkpt lat="43.59787" lon="6.31628">
        <ele>755.3</ele>
        <time>2023-01-06T13:32:17Z</time>
      </trkpt>
      <trkpt lat="43.59794" lon="6.31637">
        <ele>755.5</ele>
        <time>2023-01-06T13:32:27Z</time>
      </trkpt>
      <trkpt lat="43.59802" lon="6.31645">
        <ele>755.8</ele>
        <time>2023-01-06T13:32:37Z</time>
      </trkpt>
      <trkpt lat="43.59809" lon="6.31653">
        <ele>755.7</ele>
        <time>2023-01-06T13:32:48Z</time>
      </trkpt>
      <trkpt lat="43.59815" lon="6.31664">
        <ele>755.2</ele>
        <time>2023-01-06T13:32:59Z</time>
      </trkpt>
      <trkpt lat="43.59821" lon="6.31674">
        <ele>754.5</ele>
        <time>2023-01-06T13:33:10Z</time>
      </trkpt>
      <trkpt lat="43.59825" lon="6.31686">
        <ele>754.3</ele>
        <time>2023-01-06T13:33:20Z</time>
      </trkpt>
      <trkpt lat="43.59829" lon="6.31699">
        <ele>754</ele>
        <time>2023-01-06T13:33:30Z</time>
      </trkpt>
      <trkpt lat="43.59833" lon="6.31711">
        <ele>753.7</ele>
        <time>2023-01-06T13:33:39Z</time>
      </trkpt>
      <trkpt lat="43.59837" lon="6.31722">
        <ele>753.2</ele>
        <time>2023-01-06T13:33:49Z</time>
      </trkpt>
      <trkpt lat="43.59842" lon="6.31734">
        <ele>753.3</ele>
        <time>2023-01-06T13:34:00Z</time>
      </trkpt>
      <trkpt lat="43.5985" lon="6.31742">
        <ele>752.5</ele>
        <time>2023-01-06T13:34:09Z</time>
      </trkpt>
      <trkpt lat="43.59858" lon="6.3175">
        <ele>751.9</ele>
        <time>2023-01-06T13:34:19Z</time>
      </trkpt>
      <trkpt lat="43.59865" lon="6.31758">
        <ele>750.9</ele>
        <time>2023-01-06T13:34:30Z</time>
      </trkpt>
      <trkpt lat="43.59872" lon="6.31764">
        <ele>750.3</ele>
        <time>2023-01-06T13:34:39Z</time>
      </trkpt>
      <trkpt lat="43.5988" lon="6.31772">
        <ele>749.8</ele>
        <time>2023-01-06T13:34:48Z</time>
      </trkpt>
      <trkpt lat="43.59888" lon="6.31778">
        <ele>749</ele>
        <time>2023-01-06T13:34:58Z</time>
      </trkpt>
      <trkpt lat="43.59897" lon="6.31783">
        <ele>749</ele>
        <time>2023-01-06T13:35:08Z</time>
      </trkpt>
      <trkpt lat="43.59904" lon="6.31792">
        <ele>749.3</ele>
        <time>2023-01-06T13:35:23Z</time>
      </trkpt>
      <trkpt lat="43.59905" lon="6.31805">
        <ele>749.9</ele>
        <time>2023-01-06T13:35:35Z</time>
      </trkpt>
      <trkpt lat="43.5991" lon="6.31818">
        <ele>749.7</ele>
        <time>2023-01-06T13:35:44Z</time>
      </trkpt>
      <trkpt lat="43.59916" lon="6.31828">
        <ele>748.5</ele>
        <time>2023-01-06T13:35:53Z</time>
      </trkpt>
      <trkpt lat="43.5992" lon="6.3184">
        <ele>747.9</ele>
        <time>2023-01-06T13:36:02Z</time>
      </trkpt>
      <trkpt lat="43.59926" lon="6.31848">
        <ele>747.5</ele>
        <time>2023-01-06T13:36:11Z</time>
      </trkpt>
      <trkpt lat="43.59934" lon="6.31854">
        <ele>745.8</ele>
        <time>2023-01-06T13:36:25Z</time>
      </trkpt>
      <trkpt lat="43.59943" lon="6.31857">
        <ele>744.9</ele>
        <time>2023-01-06T13:36:37Z</time>
      </trkpt>
      <trkpt lat="43.59953" lon="6.31859">
        <ele>744.1</ele>
        <time>2023-01-06T13:36:50Z</time>
      </trkpt>
      <trkpt lat="43.59961" lon="6.31864">
        <ele>743.1</ele>
        <time>2023-01-06T13:37:00Z</time>
      </trkpt>
      <trkpt lat="43.59967" lon="6.31874">
        <ele>742.6</ele>
        <time>2023-01-06T13:37:10Z</time>
      </trkpt>
      <trkpt lat="43.59974" lon="6.31883">
        <ele>742</ele>
        <time>2023-01-06T13:37:19Z</time>
      </trkpt>
      <trkpt lat="43.59982" lon="6.31887">
        <ele>740.8</ele>
        <time>2023-01-06T13:37:30Z</time>
      </trkpt>
      <trkpt lat="43.59992" lon="6.3189">
        <ele>738.4</ele>
        <time>2023-01-06T13:37:45Z</time>
      </trkpt>
      <trkpt lat="43.60001" lon="6.31886">
        <ele>737.4</ele>
        <time>2023-01-06T13:37:54Z</time>
      </trkpt>
      <trkpt lat="43.60008" lon="6.31879">
        <ele>735.2</ele>
        <time>2023-01-06T13:38:11Z</time>
      </trkpt>
      <trkpt lat="43.60018" lon="6.3188">
        <ele>733.3</ele>
        <time>2023-01-06T13:40:05Z</time>
      </trkpt>
      <trkpt lat="43.60027" lon="6.31882">
        <ele>731.8</ele>
        <time>2023-01-06T13:40:19Z</time>
      </trkpt>
      <trkpt lat="43.60036" lon="6.31886">
        <ele>730.2</ele>
        <time>2023-01-06T13:40:33Z</time>
      </trkpt>
      <trkpt lat="43.60044" lon="6.31893">
        <ele>728.5</ele>
        <time>2023-01-06T13:40:48Z</time>
      </trkpt>
      <trkpt lat="43.60054" lon="6.31896">
        <ele>727</ele>
        <time>2023-01-06T13:41:01Z</time>
      </trkpt>
      <trkpt lat="43.60063" lon="6.31899">
        <ele>725.7</ele>
        <time>2023-01-06T13:41:13Z</time>
      </trkpt>
      <trkpt lat="43.60072" lon="6.31901">
        <ele>724.7</ele>
        <time>2023-01-06T13:41:27Z</time>
      </trkpt>
      <trkpt lat="43.60081" lon="6.31897">
        <ele>723.7</ele>
        <time>2023-01-06T13:41:40Z</time>
      </trkpt>
      <trkpt lat="43.6009" lon="6.31893">
        <ele>723.4</ele>
        <time>2023-01-06T13:41:46Z</time>
      </trkpt>
      <trkpt lat="43.60098" lon="6.31886">
        <ele>722.8</ele>
        <time>2023-01-06T13:41:54Z</time>
      </trkpt>
      <trkpt lat="43.60107" lon="6.31881">
        <ele>722.2</ele>
        <time>2023-01-06T13:42:04Z</time>
      </trkpt>
      <trkpt lat="43.60115" lon="6.31873">
        <ele>721.4</ele>
        <time>2023-01-06T13:42:13Z</time>
      </trkpt>
      <trkpt lat="43.60123" lon="6.31865">
        <ele>720.9</ele>
        <time>2023-01-06T13:42:20Z</time>
      </trkpt>
      <trkpt lat="43.6013" lon="6.31858">
        <ele>720.4</ele>
        <time>2023-01-06T13:42:27Z</time>
      </trkpt>
      <trkpt lat="43.60138" lon="6.31851">
        <ele>720</ele>
        <time>2023-01-06T13:42:34Z</time>
      </trkpt>
      <trkpt lat="43.60146" lon="6.31842">
        <ele>719.1</ele>
        <time>2023-01-06T13:42:42Z</time>
      </trkpt>
      <trkpt lat="43.60155" lon="6.31838">
        <ele>718.1</ele>
        <time>2023-01-06T13:42:57Z</time>
      </trkpt>
      <trkpt lat="43.60164" lon="6.3184">
        <ele>717.9</ele>
        <time>2023-01-06T13:43:07Z</time>
      </trkpt>
      <trkpt lat="43.60172" lon="6.31848">
        <ele>717.8</ele>
        <time>2023-01-06T13:43:17Z</time>
      </trkpt>
      <trkpt lat="43.6018" lon="6.31853">
        <ele>717.1</ele>
        <time>2023-01-06T13:43:27Z</time>
      </trkpt>
      <trkpt lat="43.60189" lon="6.31857">
        <ele>716.5</ele>
        <time>2023-01-06T13:43:37Z</time>
      </trkpt>
      <trkpt lat="43.60198" lon="6.31858">
        <ele>715.4</ele>
        <time>2023-01-06T13:43:49Z</time>
      </trkpt>
      <trkpt lat="43.60207" lon="6.3186">
        <ele>715.1</ele>
        <time>2023-01-06T13:44:00Z</time>
      </trkpt>
      <trkpt lat="43.60217" lon="6.31859">
        <ele>714.7</ele>
        <time>2023-01-06T13:44:06Z</time>
      </trkpt>
      <trkpt lat="43.60226" lon="6.31862">
        <ele>714.5</ele>
        <time>2023-01-06T13:44:15Z</time>
      </trkpt>
      <trkpt lat="43.60235" lon="6.31866">
        <ele>714.4</ele>
        <time>2023-01-06T13:44:23Z</time>
      </trkpt>
      <trkpt lat="43.60244" lon="6.31871">
        <ele>714.5</ele>
        <time>2023-01-06T13:44:32Z</time>
      </trkpt>
      <trkpt lat="43.60251" lon="6.3188">
        <ele>714.2</ele>
        <time>2023-01-06T13:44:41Z</time>
      </trkpt>
      <trkpt lat="43.60261" lon="6.31883">
        <ele>713.7</ele>
        <time>2023-01-06T13:44:51Z</time>
      </trkpt>
      <trkpt lat="43.6027" lon="6.31888">
        <ele>714.3</ele>
        <time>2023-01-06T13:44:59Z</time>
      </trkpt>
      <trkpt lat="43.60279" lon="6.31893">
        <ele>714.5</ele>
        <time>2023-01-06T13:45:07Z</time>
      </trkpt>
      <trkpt lat="43.60288" lon="6.31897">
        <ele>714.4</ele>
        <time>2023-01-06T13:45:16Z</time>
      </trkpt>
      <trkpt lat="43.60296" lon="6.31906">
        <ele>714.8</ele>
        <time>2023-01-06T13:45:26Z</time>
      </trkpt>
      <trkpt lat="43.60303" lon="6.31913">
        <ele>714.3</ele>
        <time>2023-01-06T13:45:34Z</time>
      </trkpt>
      <trkpt lat="43.6031" lon="6.31924">
        <ele>713.5</ele>
        <time>2023-01-06T13:45:45Z</time>
      </trkpt>
      <trkpt lat="43.60318" lon="6.31931">
        <ele>713.4</ele>
        <time>2023-01-06T13:45:57Z</time>
      </trkpt>
      <trkpt lat="43.60326" lon="6.31938">
        <ele>713</ele>
        <time>2023-01-06T13:46:07Z</time>
      </trkpt>
      <trkpt lat="43.60334" lon="6.31945">
        <ele>712.9</ele>
        <time>2023-01-06T13:46:17Z</time>
      </trkpt>
      <trkpt lat="43.60342" lon="6.31951">
        <ele>712.8</ele>
        <time>2023-01-06T13:46:25Z</time>
      </trkpt>
      <trkpt lat="43.60352" lon="6.31949">
        <ele>712.6</ele>
        <time>2023-01-06T13:46:32Z</time>
      </trkpt>
      <trkpt lat="43.6036" lon="6.31956">
        <ele>712.8</ele>
        <time>2023-01-06T13:46:42Z</time>
      </trkpt>
      <trkpt lat="43.60368" lon="6.31965">
        <ele>713.1</ele>
        <time>2023-01-06T13:46:50Z</time>
      </trkpt>
      <trkpt lat="43.60374" lon="6.31975">
        <ele>712.8</ele>
        <time>2023-01-06T13:47:01Z</time>
      </trkpt>
      <trkpt lat="43.60383" lon="6.31982">
        <ele>713.1</ele>
        <time>2023-01-06T13:47:13Z</time>
      </trkpt>
      <trkpt lat="43.60392" lon="6.31979">
        <ele>713.3</ele>
        <time>2023-01-06T13:47:20Z</time>
      </trkpt>
      <trkpt lat="43.604" lon="6.31973">
        <ele>713.5</ele>
        <time>2023-01-06T13:47:28Z</time>
      </trkpt>
      <trkpt lat="43.60408" lon="6.31965">
        <ele>713.6</ele>
        <time>2023-01-06T13:47:36Z</time>
      </trkpt>
      <trkpt lat="43.60415" lon="6.31957">
        <ele>713.9</ele>
        <time>2023-01-06T13:47:46Z</time>
      </trkpt>
      <trkpt lat="43.60424" lon="6.31951">
        <ele>713.8</ele>
        <time>2023-01-06T13:47:58Z</time>
      </trkpt>
      <trkpt lat="43.60433" lon="6.31945">
        <ele>714.2</ele>
        <time>2023-01-06T13:48:06Z</time>
      </trkpt>
      <trkpt lat="43.60441" lon="6.31939">
        <ele>714.4</ele>
        <time>2023-01-06T13:48:15Z</time>
      </trkpt>
      <trkpt lat="43.6045" lon="6.31935">
        <ele>714.7</ele>
        <time>2023-01-06T13:48:31Z</time>
      </trkpt>
      <trkpt lat="43.60459" lon="6.31939">
        <ele>715.8</ele>
        <time>2023-01-06T13:48:43Z</time>
      </trkpt>
      <trkpt lat="43.60468" lon="6.31935">
        <ele>716.4</ele>
        <time>2023-01-06T13:48:51Z</time>
      </trkpt>
      <trkpt lat="43.60476" lon="6.31927">
        <ele>716.9</ele>
        <time>2023-01-06T13:48:59Z</time>
      </trkpt>
      <trkpt lat="43.60483" lon="6.31918">
        <ele>716.9</ele>
        <time>2023-01-06T13:49:06Z</time>
      </trkpt>
      <trkpt lat="43.60491" lon="6.31911">
        <ele>717</ele>
        <time>2023-01-06T13:49:13Z</time>
      </trkpt>
      <trkpt lat="43.60496" lon="6.319">
        <ele>716.7</ele>
        <time>2023-01-06T13:50:31Z</time>
      </trkpt>
      <trkpt lat="43.60499" lon="6.31888">
        <ele>716.8</ele>
        <time>2023-01-06T13:50:44Z</time>
      </trkpt>
      <trkpt lat="43.60505" lon="6.31879">
        <ele>717.1</ele>
        <time>2023-01-06T13:50:55Z</time>
      </trkpt>
      <trkpt lat="43.60511" lon="6.31869">
        <ele>717.6</ele>
        <time>2023-01-06T13:54:02Z</time>
      </trkpt>
      <trkpt lat="43.60504" lon="6.31876">
        <ele>717.7</ele>
        <time>2023-01-06T13:55:47Z</time>
      </trkpt>
      <trkpt lat="43.60498" lon="6.31886">
        <ele>717.6</ele>
        <time>2023-01-06T13:56:23Z</time>
      </trkpt>
      <trkpt lat="43.60493" lon="6.31897">
        <ele>717.6</ele>
        <time>2023-01-06T13:56:43Z</time>
      </trkpt>
      <trkpt lat="43.60489" lon="6.3191">
        <ele>717</ele>
        <time>2023-01-06T13:56:58Z</time>
      </trkpt>
      <trkpt lat="43.60488" lon="6.31923">
        <ele>716.8</ele>
        <time>2023-01-06T13:57:07Z</time>
      </trkpt>
      <trkpt lat="43.60493" lon="6.31934">
        <ele>717.2</ele>
        <time>2023-01-06T13:57:18Z</time>
      </trkpt>
      <trkpt lat="43.60502" lon="6.31938">
        <ele>718.5</ele>
        <time>2023-01-06T13:57:28Z</time>
      </trkpt>
      <trkpt lat="43.60511" lon="6.31941">
        <ele>720</ele>
        <time>2023-01-06T13:57:45Z</time>
      </trkpt>
      <trkpt lat="43.60518" lon="6.31931">
        <ele>719.8</ele>
        <time>2023-01-06T13:57:58Z</time>
      </trkpt>
      <trkpt lat="43.60524" lon="6.31922">
        <ele>720.2</ele>
        <time>2023-01-06T13:58:09Z</time>
      </trkpt>
      <trkpt lat="43.6053" lon="6.31912">
        <ele>720.8</ele>
        <time>2023-01-06T13:58:20Z</time>
      </trkpt>
      <trkpt lat="43.60535" lon="6.31902">
        <ele>721.8</ele>
        <time>2023-01-06T13:58:33Z</time>
      </trkpt>
      <trkpt lat="43.6054" lon="6.31891">
        <ele>722.3</ele>
        <time>2023-01-06T13:58:43Z</time>
      </trkpt>
      <trkpt lat="43.60546" lon="6.3188">
        <ele>722.5</ele>
        <time>2023-01-06T13:58:53Z</time>
      </trkpt>
      <trkpt lat="43.60552" lon="6.3187">
        <ele>722.5</ele>
        <time>2023-01-06T13:59:02Z</time>
      </trkpt>
      <trkpt lat="43.60558" lon="6.31861">
        <ele>722.5</ele>
        <time>2023-01-06T13:59:11Z</time>
      </trkpt>
      <trkpt lat="43.60565" lon="6.31852">
        <ele>722.8</ele>
        <time>2023-01-06T13:59:22Z</time>
      </trkpt>
      <trkpt lat="43.6057" lon="6.31842">
        <ele>723.5</ele>
        <time>2023-01-06T13:59:32Z</time>
      </trkpt>
      <trkpt lat="43.60574" lon="6.3183">
        <ele>723.6</ele>
        <time>2023-01-06T13:59:43Z</time>
      </trkpt>
      <trkpt lat="43.60578" lon="6.31818">
        <ele>723.4</ele>
        <time>2023-01-06T13:59:52Z</time>
      </trkpt>
      <trkpt lat="43.60581" lon="6.31806">
        <ele>723.7</ele>
        <time>2023-01-06T14:00:02Z</time>
      </trkpt>
      <trkpt lat="43.60587" lon="6.31795">
        <ele>723.5</ele>
        <time>2023-01-06T14:00:12Z</time>
      </trkpt>
      <trkpt lat="43.60591" lon="6.31784">
        <ele>723.4</ele>
        <time>2023-01-06T14:00:21Z</time>
      </trkpt>
      <trkpt lat="43.60593" lon="6.31772">
        <ele>723.7</ele>
        <time>2023-01-06T14:00:32Z</time>
      </trkpt>
      <trkpt lat="43.606" lon="6.31761">
        <ele>723.8</ele>
        <time>2023-01-06T14:00:41Z</time>
      </trkpt>
      <trkpt lat="43.60606" lon="6.31752">
        <ele>723.5</ele>
        <time>2023-01-06T14:00:51Z</time>
      </trkpt>
      <trkpt lat="43.60612" lon="6.31741">
        <ele>724</ele>
        <time>2023-01-06T14:01:01Z</time>
      </trkpt>
      <trkpt lat="43.60618" lon="6.31731">
        <ele>724.3</ele>
        <time>2023-01-06T14:01:09Z</time>
      </trkpt>
      <trkpt lat="43.60624" lon="6.31719">
        <ele>724.7</ele>
        <time>2023-01-06T14:01:19Z</time>
      </trkpt>
      <trkpt lat="43.6063" lon="6.3171">
        <ele>725.6</ele>
        <time>2023-01-06T14:01:28Z</time>
      </trkpt>
      <trkpt lat="43.60636" lon="6.31699">
        <ele>725.7</ele>
        <time>2023-01-06T14:01:39Z</time>
      </trkpt>
      <trkpt lat="43.60642" lon="6.31688">
        <ele>726.4</ele>
        <time>2023-01-06T14:01:49Z</time>
      </trkpt>
      <trkpt lat="43.60647" lon="6.31677">
        <ele>726.7</ele>
        <time>2023-01-06T14:01:59Z</time>
      </trkpt>
      <trkpt lat="43.60653" lon="6.31666">
        <ele>727</ele>
        <time>2023-01-06T14:02:11Z</time>
      </trkpt>
      <trkpt lat="43.60655" lon="6.31654">
        <ele>727.2</ele>
        <time>2023-01-06T14:02:22Z</time>
      </trkpt>
      <trkpt lat="43.6066" lon="6.31643">
        <ele>727.3</ele>
        <time>2023-01-06T14:02:32Z</time>
      </trkpt>
      <trkpt lat="43.60665" lon="6.31632">
        <ele>727.6</ele>
        <time>2023-01-06T14:02:41Z</time>
      </trkpt>
      <trkpt lat="43.6067" lon="6.31621">
        <ele>727.8</ele>
        <time>2023-01-06T14:02:52Z</time>
      </trkpt>
      <trkpt lat="43.60676" lon="6.31609">
        <ele>728.5</ele>
        <time>2023-01-06T14:03:00Z</time>
      </trkpt>
      <trkpt lat="43.6068" lon="6.31598">
        <ele>728.9</ele>
        <time>2023-01-06T14:03:09Z</time>
      </trkpt>
      <trkpt lat="43.60684" lon="6.31587">
        <ele>729.4</ele>
        <time>2023-01-06T14:03:19Z</time>
      </trkpt>
      <trkpt lat="43.60688" lon="6.31574">
        <ele>729.7</ele>
        <time>2023-01-06T14:03:29Z</time>
      </trkpt>
      <trkpt lat="43.60691" lon="6.31563">
        <ele>730.3</ele>
        <time>2023-01-06T14:03:38Z</time>
      </trkpt>
      <trkpt lat="43.60696" lon="6.31552">
        <ele>730.6</ele>
        <time>2023-01-06T14:03:47Z</time>
      </trkpt>
      <trkpt lat="43.607" lon="6.3154">
        <ele>730.8</ele>
        <time>2023-01-06T14:03:59Z</time>
      </trkpt>
      <trkpt lat="43.60707" lon="6.3153">
        <ele>731.1</ele>
        <time>2023-01-06T14:04:09Z</time>
      </trkpt>
      <trkpt lat="43.6071" lon="6.31519">
        <ele>731</ele>
        <time>2023-01-06T14:04:19Z</time>
      </trkpt>
      <trkpt lat="43.60712" lon="6.31506">
        <ele>730.7</ele>
        <time>2023-01-06T14:04:28Z</time>
      </trkpt>
      <trkpt lat="43.60716" lon="6.31494">
        <ele>730.6</ele>
        <time>2023-01-06T14:04:37Z</time>
      </trkpt>
      <trkpt lat="43.60718" lon="6.31481">
        <ele>730.1</ele>
        <time>2023-01-06T14:04:47Z</time>
      </trkpt>
      <trkpt lat="43.60724" lon="6.31471">
        <ele>729.6</ele>
        <time>2023-01-06T14:04:55Z</time>
      </trkpt>
      <trkpt lat="43.6073" lon="6.3146">
        <ele>729.4</ele>
        <time>2023-01-06T14:05:05Z</time>
      </trkpt>
      <trkpt lat="43.60736" lon="6.31451">
        <ele>728.9</ele>
        <time>2023-01-06T14:05:16Z</time>
      </trkpt>
      <trkpt lat="43.60742" lon="6.31441">
        <ele>728.7</ele>
        <time>2023-01-06T14:05:25Z</time>
      </trkpt>
      <trkpt lat="43.60751" lon="6.31436">
        <ele>728.4</ele>
        <time>2023-01-06T14:05:42Z</time>
      </trkpt>
      <trkpt lat="43.6076" lon="6.31437">
        <ele>729</ele>
        <time>2023-01-06T14:05:53Z</time>
      </trkpt>
      <trkpt lat="43.6077" lon="6.31439">
        <ele>729.7</ele>
        <time>2023-01-06T14:06:04Z</time>
      </trkpt>
      <trkpt lat="43.60779" lon="6.31443">
        <ele>729.8</ele>
        <time>2023-01-06T14:06:14Z</time>
      </trkpt>
      <trkpt lat="43.60788" lon="6.31447">
        <ele>730.3</ele>
        <time>2023-01-06T14:06:25Z</time>
      </trkpt>
      <trkpt lat="43.60798" lon="6.3145">
        <ele>730.7</ele>
        <time>2023-01-06T14:06:36Z</time>
      </trkpt>
      <trkpt lat="43.60807" lon="6.31454">
        <ele>731.6</ele>
        <time>2023-01-06T14:06:48Z</time>
      </trkpt>
      <trkpt lat="43.60817" lon="6.31452">
        <ele>732.5</ele>
        <time>2023-01-06T14:06:58Z</time>
      </trkpt>
      <trkpt lat="43.60826" lon="6.31449">
        <ele>733</ele>
        <time>2023-01-06T14:07:08Z</time>
      </trkpt>
      <trkpt lat="43.60834" lon="6.3144">
        <ele>733.8</ele>
        <time>2023-01-06T14:07:14Z</time>
      </trkpt>
      <trkpt lat="43.6084" lon="6.31431">
        <ele>734.3</ele>
        <time>2023-01-06T14:07:21Z</time>
      </trkpt>
      <trkpt lat="43.60847" lon="6.31422">
        <ele>734.8</ele>
        <time>2023-01-06T14:07:29Z</time>
      </trkpt>
      <trkpt lat="43.60855" lon="6.31415">
        <ele>735.4</ele>
        <time>2023-01-06T14:07:39Z</time>
      </trkpt>
      <trkpt lat="43.60863" lon="6.3141">
        <ele>735.8</ele>
        <time>2023-01-06T14:07:46Z</time>
      </trkpt>
      <trkpt lat="43.60868" lon="6.31399">
        <ele>736.4</ele>
        <time>2023-01-06T14:07:56Z</time>
      </trkpt>
      <trkpt lat="43.60873" lon="6.31389">
        <ele>736.9</ele>
        <time>2023-01-06T14:08:05Z</time>
      </trkpt>
      <trkpt lat="43.6088" lon="6.31379">
        <ele>737.3</ele>
        <time>2023-01-06T14:08:15Z</time>
      </trkpt>
      <trkpt lat="43.60885" lon="6.31369">
        <ele>737.8</ele>
        <time>2023-01-06T14:08:25Z</time>
      </trkpt>
      <trkpt lat="43.60891" lon="6.31357">
        <ele>738.6</ele>
        <time>2023-01-06T14:08:36Z</time>
      </trkpt>
      <trkpt lat="43.60894" lon="6.31344">
        <ele>739.3</ele>
        <time>2023-01-06T14:08:47Z</time>
      </trkpt>
      <trkpt lat="43.60899" lon="6.31333">
        <ele>739.8</ele>
        <time>2023-01-06T14:08:57Z</time>
      </trkpt>
      <trkpt lat="43.60904" lon="6.31321">
        <ele>741.2</ele>
        <time>2023-01-06T14:09:07Z</time>
      </trkpt>
      <trkpt lat="43.60908" lon="6.31309">
        <ele>742.1</ele>
        <time>2023-01-06T14:09:17Z</time>
      </trkpt>
      <trkpt lat="43.60909" lon="6.31296">
        <ele>742.8</ele>
        <time>2023-01-06T14:09:26Z</time>
      </trkpt>
      <trkpt lat="43.60916" lon="6.31288">
        <ele>743.1</ele>
        <time>2023-01-06T14:09:36Z</time>
      </trkpt>
      <trkpt lat="43.60923" lon="6.31278">
        <ele>743.6</ele>
        <time>2023-01-06T14:09:50Z</time>
      </trkpt>
      <trkpt lat="43.6093" lon="6.3127">
        <ele>743.6</ele>
        <time>2023-01-06T14:09:59Z</time>
      </trkpt>
      <trkpt lat="43.60938" lon="6.31263">
        <ele>744.2</ele>
        <time>2023-01-06T14:10:09Z</time>
      </trkpt>
      <trkpt lat="43.60943" lon="6.31252">
        <ele>744</ele>
        <time>2023-01-06T14:10:20Z</time>
      </trkpt>
      <trkpt lat="43.60945" lon="6.3124">
        <ele>743.9</ele>
        <time>2023-01-06T14:10:27Z</time>
      </trkpt>
      <trkpt lat="43.60949" lon="6.31228">
        <ele>744</ele>
        <time>2023-01-06T14:10:34Z</time>
      </trkpt>
      <trkpt lat="43.60947" lon="6.31216">
        <ele>744.1</ele>
        <time>2023-01-06T14:11:13Z</time>
      </trkpt>
      <trkpt lat="43.60954" lon="6.31208">
        <ele>744.2</ele>
        <time>2023-01-06T14:11:39Z</time>
      </trkpt>
      <trkpt lat="43.60962" lon="6.31201">
        <ele>744.3</ele>
        <time>2023-01-06T14:11:47Z</time>
      </trkpt>
      <trkpt lat="43.60964" lon="6.31189">
        <ele>744.2</ele>
        <time>2023-01-06T14:11:57Z</time>
      </trkpt>
      <trkpt lat="43.60963" lon="6.31175">
        <ele>744.6</ele>
        <time>2023-01-06T14:12:07Z</time>
      </trkpt>
      <trkpt lat="43.60964" lon="6.31162">
        <ele>745.1</ele>
        <time>2023-01-06T14:12:16Z</time>
      </trkpt>
      <trkpt lat="43.60968" lon="6.31151">
        <ele>744.8</ele>
        <time>2023-01-06T14:12:25Z</time>
      </trkpt>
      <trkpt lat="43.60971" lon="6.31139">
        <ele>744.9</ele>
        <time>2023-01-06T14:12:33Z</time>
      </trkpt>
      <trkpt lat="43.60974" lon="6.31126">
        <ele>744.2</ele>
        <time>2023-01-06T14:12:43Z</time>
      </trkpt>
      <trkpt lat="43.60976" lon="6.31113">
        <ele>743.6</ele>
        <time>2023-01-06T14:12:51Z</time>
      </trkpt>
      <trkpt lat="43.60976" lon="6.311">
        <ele>743.2</ele>
        <time>2023-01-06T14:13:00Z</time>
      </trkpt>
      <trkpt lat="43.60974" lon="6.31087">
        <ele>743.3</ele>
        <time>2023-01-06T14:13:10Z</time>
      </trkpt>
      <trkpt lat="43.60971" lon="6.31074">
        <ele>743.6</ele>
        <time>2023-01-06T14:13:20Z</time>
      </trkpt>
      <trkpt lat="43.60968" lon="6.31062">
        <ele>743.5</ele>
        <time>2023-01-06T14:13:29Z</time>
      </trkpt>
      <trkpt lat="43.60969" lon="6.3105">
        <ele>743.5</ele>
        <time>2023-01-06T14:14:05Z</time>
      </trkpt>
      <trkpt lat="43.60964" lon="6.31039">
        <ele>743.2</ele>
        <time>2023-01-06T14:16:02Z</time>
      </trkpt>
      <trkpt lat="43.60958" lon="6.31029">
        <ele>742.5</ele>
        <time>2023-01-06T14:16:19Z</time>
      </trkpt>
      <trkpt lat="43.6095" lon="6.31022">
        <ele>742.2</ele>
        <time>2023-01-06T14:16:29Z</time>
      </trkpt>
      <trkpt lat="43.60941" lon="6.31023">
        <ele>742.2</ele>
        <time>2023-01-06T14:16:42Z</time>
      </trkpt>
      <trkpt lat="43.60931" lon="6.31022">
        <ele>741.2</ele>
        <time>2023-01-06T14:16:57Z</time>
      </trkpt>
      <trkpt lat="43.60922" lon="6.31019">
        <ele>739</ele>
        <time>2023-01-06T14:17:18Z</time>
      </trkpt>
      <trkpt lat="43.60914" lon="6.31013">
        <ele>737.1</ele>
        <time>2023-01-06T14:17:33Z</time>
      </trkpt>
      <trkpt lat="43.60908" lon="6.31003">
        <ele>735.6</ele>
        <time>2023-01-06T14:17:45Z</time>
      </trkpt>
      <trkpt lat="43.60902" lon="6.30993">
        <ele>734.8</ele>
        <time>2023-01-06T14:17:57Z</time>
      </trkpt>
      <trkpt lat="43.60893" lon="6.30989">
        <ele>734</ele>
        <time>2023-01-06T14:18:27Z</time>
      </trkpt>
      <trkpt lat="43.60885" lon="6.30983">
        <ele>734.5</ele>
        <time>2023-01-06T14:18:50Z</time>
      </trkpt>
      <trkpt lat="43.60877" lon="6.30977">
        <ele>736.3</ele>
        <time>2023-01-06T14:19:07Z</time>
      </trkpt>
      <trkpt lat="43.6087" lon="6.30969">
        <ele>739.4</ele>
        <time>2023-01-06T14:19:25Z</time>
      </trkpt>
      <trkpt lat="43.60862" lon="6.30963">
        <ele>741.5</ele>
        <time>2023-01-06T14:19:45Z</time>
      </trkpt>
      <trkpt lat="43.60853" lon="6.30958">
        <ele>742.5</ele>
        <time>2023-01-06T14:20:01Z</time>
      </trkpt>
      <trkpt lat="43.60844" lon="6.30957">
        <ele>741.6</ele>
        <time>2023-01-06T14:20:12Z</time>
      </trkpt>
      <trkpt lat="43.60834" lon="6.30956">
        <ele>740.5</ele>
        <time>2023-01-06T14:20:22Z</time>
      </trkpt>
      <trkpt lat="43.60825" lon="6.30958">
        <ele>739.6</ele>
        <time>2023-01-06T14:20:35Z</time>
      </trkpt>
      <trkpt lat="43.60816" lon="6.30962">
        <ele>738</ele>
        <time>2023-01-06T14:20:46Z</time>
      </trkpt>
      <trkpt lat="43.60806" lon="6.30965">
        <ele>736.1</ele>
        <time>2023-01-06T14:21:03Z</time>
      </trkpt>
      <trkpt lat="43.60798" lon="6.30969">
        <ele>735.5</ele>
        <time>2023-01-06T14:21:10Z</time>
      </trkpt>
      <trkpt lat="43.60789" lon="6.30974">
        <ele>734.7</ele>
        <time>2023-01-06T14:21:16Z</time>
      </trkpt>
      <trkpt lat="43.60781" lon="6.30983">
        <ele>733.9</ele>
        <time>2023-01-06T14:21:23Z</time>
      </trkpt>
      <trkpt lat="43.60778" lon="6.30995">
        <ele>734.4</ele>
        <time>2023-01-06T14:21:32Z</time>
      </trkpt>
      <trkpt lat="43.60772" lon="6.31006">
        <ele>734.3</ele>
        <time>2023-01-06T14:21:40Z</time>
      </trkpt>
      <trkpt lat="43.60768" lon="6.31017">
        <ele>734</ele>
        <time>2023-01-06T14:21:51Z</time>
      </trkpt>
      <trkpt lat="43.60763" lon="6.31028">
        <ele>732.7</ele>
        <time>2023-01-06T14:22:04Z</time>
      </trkpt>
      <trkpt lat="43.60756" lon="6.31037">
        <ele>732.1</ele>
        <time>2023-01-06T14:22:13Z</time>
      </trkpt>
      <trkpt lat="43.60749" lon="6.31045">
        <ele>731.1</ele>
        <time>2023-01-06T14:22:22Z</time>
      </trkpt>
      <trkpt lat="43.60743" lon="6.31055">
        <ele>729.8</ele>
        <time>2023-01-06T14:22:35Z</time>
      </trkpt>
      <trkpt lat="43.60737" lon="6.31063">
        <ele>729</ele>
        <time>2023-01-06T14:22:45Z</time>
      </trkpt>
      <trkpt lat="43.60729" lon="6.31073">
        <ele>728</ele>
        <time>2023-01-06T14:22:55Z</time>
      </trkpt>
      <trkpt lat="43.60723" lon="6.31083">
        <ele>726.9</ele>
        <time>2023-01-06T14:23:06Z</time>
      </trkpt>
      <trkpt lat="43.60714" lon="6.31086">
        <ele>725.7</ele>
        <time>2023-01-06T14:23:22Z</time>
      </trkpt>
      <trkpt lat="43.60705" lon="6.31086">
        <ele>722.8</ele>
        <time>2023-01-06T14:23:45Z</time>
      </trkpt>
      <trkpt lat="43.60698" lon="6.31077">
        <ele>722.1</ele>
        <time>2023-01-06T14:23:56Z</time>
      </trkpt>
      <trkpt lat="43.60693" lon="6.31066">
        <ele>721.1</ele>
        <time>2023-01-06T14:24:06Z</time>
      </trkpt>
      <trkpt lat="43.60687" lon="6.31055">
        <ele>720.6</ele>
        <time>2023-01-06T14:24:16Z</time>
      </trkpt>
      <trkpt lat="43.60681" lon="6.31046">
        <ele>719.7</ele>
        <time>2023-01-06T14:24:27Z</time>
      </trkpt>
      <trkpt lat="43.60675" lon="6.31035">
        <ele>718.5</ele>
        <time>2023-01-06T14:24:37Z</time>
      </trkpt>
      <trkpt lat="43.60669" lon="6.31026">
        <ele>716.8</ele>
        <time>2023-01-06T14:24:49Z</time>
      </trkpt>
      <trkpt lat="43.60661" lon="6.31016">
        <ele>715.6</ele>
        <time>2023-01-06T14:25:04Z</time>
      </trkpt>
      <trkpt lat="43.60654" lon="6.31008">
        <ele>714.7</ele>
        <time>2023-01-06T14:25:15Z</time>
      </trkpt>
      <trkpt lat="43.60645" lon="6.31003">
        <ele>714</ele>
        <time>2023-01-06T14:25:26Z</time>
      </trkpt>
      <trkpt lat="43.60635" lon="6.31">
        <ele>713.3</ele>
        <time>2023-01-06T14:25:39Z</time>
      </trkpt>
      <trkpt lat="43.60627" lon="6.30994">
        <ele>712.9</ele>
        <time>2023-01-06T14:25:48Z</time>
      </trkpt>
      <trkpt lat="43.60619" lon="6.30987">
        <ele>712.8</ele>
        <time>2023-01-06T14:25:55Z</time>
      </trkpt>
      <trkpt lat="43.60612" lon="6.30978">
        <ele>712.4</ele>
        <time>2023-01-06T14:26:04Z</time>
      </trkpt>
      <trkpt lat="43.60607" lon="6.30967">
        <ele>711.1</ele>
        <time>2023-01-06T14:26:17Z</time>
      </trkpt>
      <trkpt lat="43.60604" lon="6.30955">
        <ele>710.9</ele>
        <time>2023-01-06T14:26:54Z</time>
      </trkpt>
      <trkpt lat="43.60609" lon="6.30944">
        <ele>711</ele>
        <time>2023-01-06T14:28:24Z</time>
      </trkpt>
      <trkpt lat="43.60619" lon="6.3094">
        <ele>711.1</ele>
        <time>2023-01-06T14:28:34Z</time>
      </trkpt>
      <trkpt lat="43.60621" lon="6.30927">
        <ele>711.7</ele>
        <time>2023-01-06T14:28:42Z</time>
      </trkpt>
      <trkpt lat="43.60624" lon="6.30914">
        <ele>712</ele>
        <time>2023-01-06T14:28:50Z</time>
      </trkpt>
      <trkpt lat="43.60626" lon="6.30902">
        <ele>711.1</ele>
        <time>2023-01-06T14:28:59Z</time>
      </trkpt>
      <trkpt lat="43.60621" lon="6.30891">
        <ele>709.6</ele>
        <time>2023-01-06T14:29:12Z</time>
      </trkpt>
      <trkpt lat="43.60616" lon="6.30881">
        <ele>708.5</ele>
        <time>2023-01-06T14:29:21Z</time>
      </trkpt>
      <trkpt lat="43.60608" lon="6.30874">
        <ele>706.9</ele>
        <time>2023-01-06T14:29:29Z</time>
      </trkpt>
      <trkpt lat="43.60607" lon="6.30862">
        <ele>707.1</ele>
        <time>2023-01-06T14:29:40Z</time>
      </trkpt>
      <trkpt lat="43.60602" lon="6.3085">
        <ele>706.3</ele>
        <time>2023-01-06T14:29:52Z</time>
      </trkpt>
      <trkpt lat="43.60597" lon="6.30839">
        <ele>705.4</ele>
        <time>2023-01-06T14:30:03Z</time>
      </trkpt>
      <trkpt lat="43.6059" lon="6.3083">
        <ele>704.6</ele>
        <time>2023-01-06T14:30:20Z</time>
      </trkpt>
      <trkpt lat="43.60581" lon="6.30834">
        <ele>704.7</ele>
        <time>2023-01-06T14:30:31Z</time>
      </trkpt>
      <trkpt lat="43.60572" lon="6.30839">
        <ele>704.8</ele>
        <time>2023-01-06T14:30:41Z</time>
      </trkpt>
      <trkpt lat="43.60563" lon="6.30846">
        <ele>705.1</ele>
        <time>2023-01-06T14:30:53Z</time>
      </trkpt>
      <trkpt lat="43.60555" lon="6.30853">
        <ele>705.3</ele>
        <time>2023-01-06T14:31:03Z</time>
      </trkpt>
      <trkpt lat="43.60546" lon="6.30858">
        <ele>705.6</ele>
        <time>2023-01-06T14:31:14Z</time>
      </trkpt>
      <trkpt lat="43.60538" lon="6.30864">
        <ele>705.6</ele>
        <time>2023-01-06T14:31:25Z</time>
      </trkpt>
      <trkpt lat="43.60529" lon="6.30869">
        <ele>705.3</ele>
        <time>2023-01-06T14:31:35Z</time>
      </trkpt>
      <trkpt lat="43.60521" lon="6.30874">
        <ele>704.9</ele>
        <time>2023-01-06T14:31:45Z</time>
      </trkpt>
      <trkpt lat="43.60513" lon="6.30881">
        <ele>704.7</ele>
        <time>2023-01-06T14:31:52Z</time>
      </trkpt>
      <trkpt lat="43.60509" lon="6.30892">
        <ele>705</ele>
        <time>2023-01-06T14:32:01Z</time>
      </trkpt>
      <trkpt lat="43.60503" lon="6.30902">
        <ele>705.5</ele>
        <time>2023-01-06T14:32:39Z</time>
      </trkpt>
      <trkpt lat="43.60495" lon="6.30908">
        <ele>705.9</ele>
        <time>2023-01-06T14:32:57Z</time>
      </trkpt>
      <trkpt lat="43.60486" lon="6.30904">
        <ele>706.8</ele>
        <time>2023-01-06T14:33:16Z</time>
      </trkpt>
      <trkpt lat="43.60481" lon="6.30891">
        <ele>707.8</ele>
        <time>2023-01-06T14:33:32Z</time>
      </trkpt>
      <trkpt lat="43.60475" lon="6.30881">
        <ele>708.9</ele>
        <time>2023-01-06T14:33:44Z</time>
      </trkpt>
      <trkpt lat="43.60469" lon="6.30871">
        <ele>710</ele>
        <time>2023-01-06T14:33:55Z</time>
      </trkpt>
      <trkpt lat="43.60467" lon="6.30859">
        <ele>711.2</ele>
        <time>2023-01-06T14:34:07Z</time>
      </trkpt>
      <trkpt lat="43.60464" lon="6.30847">
        <ele>712.2</ele>
        <time>2023-01-06T14:34:22Z</time>
      </trkpt>
      <trkpt lat="43.6046" lon="6.30835">
        <ele>712.9</ele>
        <time>2023-01-06T14:34:37Z</time>
      </trkpt>
      <trkpt lat="43.60456" lon="6.30823">
        <ele>713.8</ele>
        <time>2023-01-06T14:34:48Z</time>
      </trkpt>
      <trkpt lat="43.60454" lon="6.30811">
        <ele>714.1</ele>
        <time>2023-01-06T14:34:59Z</time>
      </trkpt>
      <trkpt lat="43.60448" lon="6.30801">
        <ele>714.2</ele>
        <time>2023-01-06T14:35:09Z</time>
      </trkpt>
      <trkpt lat="43.60444" lon="6.30789">
        <ele>714.5</ele>
        <time>2023-01-06T14:35:22Z</time>
      </trkpt>
      <trkpt lat="43.6044" lon="6.30777">
        <ele>714.8</ele>
        <time>2023-01-06T14:35:34Z</time>
      </trkpt>
      <trkpt lat="43.60436" lon="6.30765">
        <ele>715</ele>
        <time>2023-01-06T14:35:45Z</time>
      </trkpt>
      <trkpt lat="43.6043" lon="6.30755">
        <ele>715</ele>
        <time>2023-01-06T14:35:55Z</time>
      </trkpt>
      <trkpt lat="43.60437" lon="6.30745">
        <ele>714.5</ele>
        <time>2023-01-06T14:36:17Z</time>
      </trkpt>
      <trkpt lat="43.6044" lon="6.30733">
        <ele>713.7</ele>
        <time>2023-01-06T14:36:53Z</time>
      </trkpt>
      <trkpt lat="43.60437" lon="6.30721">
        <ele>713.5</ele>
        <time>2023-01-06T14:37:08Z</time>
      </trkpt>
      <trkpt lat="43.60429" lon="6.30712">
        <ele>714.7</ele>
        <time>2023-01-06T14:37:27Z</time>
      </trkpt>
      <trkpt lat="43.60422" lon="6.30704">
        <ele>715.5</ele>
        <time>2023-01-06T14:37:39Z</time>
      </trkpt>
      <trkpt lat="43.60414" lon="6.30697">
        <ele>716.2</ele>
        <time>2023-01-06T14:37:49Z</time>
      </trkpt>
      <trkpt lat="43.60408" lon="6.30686">
        <ele>716.8</ele>
        <time>2023-01-06T14:38:01Z</time>
      </trkpt>
      <trkpt lat="43.60403" lon="6.30676">
        <ele>717.2</ele>
        <time>2023-01-06T14:38:12Z</time>
      </trkpt>
      <trkpt lat="43.60396" lon="6.30668">
        <ele>718.4</ele>
        <time>2023-01-06T14:38:24Z</time>
      </trkpt>
      <trkpt lat="43.60389" lon="6.30657">
        <ele>719.6</ele>
        <time>2023-01-06T14:38:38Z</time>
      </trkpt>
      <trkpt lat="43.60382" lon="6.3065">
        <ele>719.8</ele>
        <time>2023-01-06T14:38:53Z</time>
      </trkpt>
      <trkpt lat="43.60379" lon="6.30638">
        <ele>720.6</ele>
        <time>2023-01-06T14:39:09Z</time>
      </trkpt>
      <trkpt lat="43.60376" lon="6.30626">
        <ele>721.2</ele>
        <time>2023-01-06T14:39:31Z</time>
      </trkpt>
      <trkpt lat="43.60369" lon="6.30617">
        <ele>722.4</ele>
        <time>2023-01-06T14:39:53Z</time>
      </trkpt>
      <trkpt lat="43.60361" lon="6.30613">
        <ele>724.1</ele>
        <time>2023-01-06T14:40:23Z</time>
      </trkpt>
      <trkpt lat="43.60355" lon="6.30603">
        <ele>724.7</ele>
        <time>2023-01-06T14:40:42Z</time>
      </trkpt>
      <trkpt lat="43.60353" lon="6.30591">
        <ele>724.6</ele>
        <time>2023-01-06T14:41:09Z</time>
      </trkpt>
      <trkpt lat="43.60348" lon="6.30579">
        <ele>724.1</ele>
        <time>2023-01-06T14:41:23Z</time>
      </trkpt>
      <trkpt lat="43.60341" lon="6.30571">
        <ele>725.6</ele>
        <time>2023-01-06T14:41:58Z</time>
      </trkpt>
      <trkpt lat="43.60331" lon="6.30573">
        <ele>726.7</ele>
        <time>2023-01-06T14:42:11Z</time>
      </trkpt>
      <trkpt lat="43.60338" lon="6.30564">
        <ele>725.8</ele>
        <time>2023-01-06T14:43:06Z</time>
      </trkpt>
      <trkpt lat="43.60335" lon="6.30552">
        <ele>725.4</ele>
        <time>2023-01-06T14:43:16Z</time>
      </trkpt>
      <trkpt lat="43.60327" lon="6.30546">
        <ele>726.5</ele>
        <time>2023-01-06T14:43:27Z</time>
      </trkpt>
      <trkpt lat="43.60322" lon="6.30535">
        <ele>725.9</ele>
        <time>2023-01-06T14:44:35Z</time>
      </trkpt>
      <trkpt lat="43.60317" lon="6.30524">
        <ele>724.5</ele>
        <time>2023-01-06T14:44:57Z</time>
      </trkpt>
      <trkpt lat="43.6031" lon="6.30516">
        <ele>723.4</ele>
        <time>2023-01-06T14:45:11Z</time>
      </trkpt>
      <trkpt lat="43.60302" lon="6.30509">
        <ele>722.6</ele>
        <time>2023-01-06T14:45:58Z</time>
      </trkpt>
      <trkpt lat="43.60295" lon="6.30502">
        <ele>721.4</ele>
        <time>2023-01-06T14:46:24Z</time>
      </trkpt>
      <trkpt lat="43.60286" lon="6.30502">
        <ele>720.5</ele>
        <time>2023-01-06T14:46:41Z</time>
      </trkpt>
      <trkpt lat="43.6028" lon="6.30493">
        <ele>718.5</ele>
        <time>2023-01-06T14:46:57Z</time>
      </trkpt>
      <trkpt lat="43.60272" lon="6.30487">
        <ele>716.8</ele>
        <time>2023-01-06T14:47:24Z</time>
      </trkpt>
      <trkpt lat="43.60264" lon="6.30481">
        <ele>715.9</ele>
        <time>2023-01-06T14:47:41Z</time>
      </trkpt>
      <trkpt lat="43.60254" lon="6.30482">
        <ele>715.3</ele>
        <time>2023-01-06T14:47:56Z</time>
      </trkpt>
      <trkpt lat="43.60245" lon="6.3048">
        <ele>714.6</ele>
        <time>2023-01-06T14:48:14Z</time>
      </trkpt>
      <trkpt lat="43.60235" lon="6.3048">
        <ele>714.2</ele>
        <time>2023-01-06T14:48:25Z</time>
      </trkpt>
      <trkpt lat="43.60226" lon="6.30481">
        <ele>713.6</ele>
        <time>2023-01-06T14:48:36Z</time>
      </trkpt>
      <trkpt lat="43.60217" lon="6.30478">
        <ele>713.1</ele>
        <time>2023-01-06T14:48:47Z</time>
      </trkpt>
      <trkpt lat="43.60207" lon="6.30478">
        <ele>712.6</ele>
        <time>2023-01-06T14:48:57Z</time>
      </trkpt>
      <trkpt lat="43.60197" lon="6.30479">
        <ele>712.4</ele>
        <time>2023-01-06T14:49:08Z</time>
      </trkpt>
      <trkpt lat="43.60188" lon="6.30477">
        <ele>711.8</ele>
        <time>2023-01-06T14:49:18Z</time>
      </trkpt>
      <trkpt lat="43.60179" lon="6.30475">
        <ele>711.5</ele>
        <time>2023-01-06T14:49:28Z</time>
      </trkpt>
      <trkpt lat="43.60171" lon="6.30481">
        <ele>710.9</ele>
        <time>2023-01-06T14:49:40Z</time>
      </trkpt>
      <trkpt lat="43.60164" lon="6.3049">
        <ele>709.8</ele>
        <time>2023-01-06T14:49:55Z</time>
      </trkpt>
      <trkpt lat="43.60159" lon="6.30499">
        <ele>710.1</ele>
        <time>2023-01-06T14:50:06Z</time>
      </trkpt>
      <trkpt lat="43.60151" lon="6.30506">
        <ele>709.8</ele>
        <time>2023-01-06T14:50:17Z</time>
      </trkpt>
      <trkpt lat="43.60142" lon="6.30508">
        <ele>710.7</ele>
        <time>2023-01-06T14:50:27Z</time>
      </trkpt>
      <trkpt lat="43.60134" lon="6.30515">
        <ele>710.6</ele>
        <time>2023-01-06T14:51:19Z</time>
      </trkpt>
      <trkpt lat="43.60131" lon="6.30503">
        <ele>710.2</ele>
        <time>2023-01-06T14:54:51Z</time>
      </trkpt>
      <trkpt lat="43.6013" lon="6.30489">
        <ele>710.1</ele>
        <time>2023-01-06T14:55:03Z</time>
      </trkpt>
      <trkpt lat="43.60129" lon="6.30477">
        <ele>710.5</ele>
        <time>2023-01-06T14:55:13Z</time>
      </trkpt>
      <trkpt lat="43.60127" lon="6.30464">
        <ele>710.8</ele>
        <time>2023-01-06T14:55:23Z</time>
      </trkpt>
      <trkpt lat="43.60122" lon="6.30454">
        <ele>710.6</ele>
        <time>2023-01-06T14:55:34Z</time>
      </trkpt>
      <trkpt lat="43.60114" lon="6.30447">
        <ele>710.4</ele>
        <time>2023-01-06T14:55:44Z</time>
      </trkpt>
      <trkpt lat="43.60105" lon="6.30442">
        <ele>710.2</ele>
        <time>2023-01-06T14:55:52Z</time>
      </trkpt>
      <trkpt lat="43.60096" lon="6.30437">
        <ele>710.3</ele>
        <time>2023-01-06T14:56:01Z</time>
      </trkpt>
      <trkpt lat="43.60086" lon="6.30434">
        <ele>710.6</ele>
        <time>2023-01-06T14:56:11Z</time>
      </trkpt>
      <trkpt lat="43.60077" lon="6.30434">
        <ele>711.2</ele>
        <time>2023-01-06T14:56:20Z</time>
      </trkpt>
      <trkpt lat="43.60068" lon="6.30436">
        <ele>711.9</ele>
        <time>2023-01-06T14:56:30Z</time>
      </trkpt>
      <trkpt lat="43.60058" lon="6.30437">
        <ele>712.8</ele>
        <time>2023-01-06T14:56:40Z</time>
      </trkpt>
      <trkpt lat="43.60049" lon="6.30438">
        <ele>714.3</ele>
        <time>2023-01-06T14:56:51Z</time>
      </trkpt>
      <trkpt lat="43.60039" lon="6.30438">
        <ele>715.5</ele>
        <time>2023-01-06T14:57:01Z</time>
      </trkpt>
      <trkpt lat="43.6003" lon="6.30439">
        <ele>715.8</ele>
        <time>2023-01-06T14:57:11Z</time>
      </trkpt>
      <trkpt lat="43.60022" lon="6.30445">
        <ele>715.5</ele>
        <time>2023-01-06T14:57:20Z</time>
      </trkpt>
      <trkpt lat="43.60014" lon="6.30451">
        <ele>715.1</ele>
        <time>2023-01-06T14:57:30Z</time>
      </trkpt>
      <trkpt lat="43.60004" lon="6.30455">
        <ele>714.1</ele>
        <time>2023-01-06T14:57:41Z</time>
      </trkpt>
      <trkpt lat="43.59995" lon="6.30458">
        <ele>713.4</ele>
        <time>2023-01-06T14:57:51Z</time>
      </trkpt>
      <trkpt lat="43.59985" lon="6.30461">
        <ele>712.4</ele>
        <time>2023-01-06T14:58:01Z</time>
      </trkpt>
      <trkpt lat="43.59976" lon="6.30464">
        <ele>711.2</ele>
        <time>2023-01-06T14:58:11Z</time>
      </trkpt>
      <trkpt lat="43.59967" lon="6.30463">
        <ele>710.4</ele>
        <time>2023-01-06T14:58:20Z</time>
      </trkpt>
      <trkpt lat="43.59958" lon="6.30467">
        <ele>709.8</ele>
        <time>2023-01-06T14:58:29Z</time>
      </trkpt>
      <trkpt lat="43.5995" lon="6.30471">
        <ele>709.4</ele>
        <time>2023-01-06T14:58:38Z</time>
      </trkpt>
      <trkpt lat="43.59941" lon="6.30474">
        <ele>708.9</ele>
        <time>2023-01-06T14:58:47Z</time>
      </trkpt>
      <trkpt lat="43.59931" lon="6.30476">
        <ele>708.5</ele>
        <time>2023-01-06T14:58:56Z</time>
      </trkpt>
      <trkpt lat="43.59922" lon="6.30478">
        <ele>708.1</ele>
        <time>2023-01-06T14:59:04Z</time>
      </trkpt>
      <trkpt lat="43.59913" lon="6.3048">
        <ele>707.4</ele>
        <time>2023-01-06T14:59:12Z</time>
      </trkpt>
      <trkpt lat="43.59904" lon="6.30482">
        <ele>707.6</ele>
        <time>2023-01-06T14:59:21Z</time>
      </trkpt>
      <trkpt lat="43.59895" lon="6.30483">
        <ele>706.9</ele>
        <time>2023-01-06T14:59:29Z</time>
      </trkpt>
      <trkpt lat="43.59885" lon="6.30481">
        <ele>705.8</ele>
        <time>2023-01-06T14:59:39Z</time>
      </trkpt>
      <trkpt lat="43.59875" lon="6.30479">
        <ele>706.1</ele>
        <time>2023-01-06T14:59:48Z</time>
      </trkpt>
      <trkpt lat="43.59866" lon="6.30477">
        <ele>704.5</ele>
        <time>2023-01-06T14:59:58Z</time>
      </trkpt>
      <trkpt lat="43.59856" lon="6.30476">
        <ele>703.3</ele>
        <time>2023-01-06T15:00:08Z</time>
      </trkpt>
      <trkpt lat="43.59846" lon="6.30478">
        <ele>702.2</ele>
        <time>2023-01-06T15:00:18Z</time>
      </trkpt>
      <trkpt lat="43.59838" lon="6.30483">
        <ele>702</ele>
        <time>2023-01-06T15:00:28Z</time>
      </trkpt>
      <trkpt lat="43.59828" lon="6.30489">
        <ele>701.1</ele>
        <time>2023-01-06T15:00:37Z</time>
      </trkpt>
      <trkpt lat="43.59821" lon="6.30496">
        <ele>700</ele>
        <time>2023-01-06T15:00:49Z</time>
      </trkpt>
      <trkpt lat="43.59812" lon="6.30501">
        <ele>699</ele>
        <time>2023-01-06T15:00:59Z</time>
      </trkpt>
      <trkpt lat="43.59803" lon="6.30506">
        <ele>698</ele>
        <time>2023-01-06T15:01:10Z</time>
      </trkpt>
      <trkpt lat="43.59795" lon="6.3051">
        <ele>697.5</ele>
        <time>2023-01-06T15:01:18Z</time>
      </trkpt>
      <trkpt lat="43.59785" lon="6.30512">
        <ele>697.7</ele>
        <time>2023-01-06T15:01:28Z</time>
      </trkpt>
      <trkpt lat="43.59775" lon="6.30514">
        <ele>698</ele>
        <time>2023-01-06T15:01:38Z</time>
      </trkpt>
      <trkpt lat="43.59765" lon="6.30516">
        <ele>697.2</ele>
        <time>2023-01-06T15:01:49Z</time>
      </trkpt>
      <trkpt lat="43.59755" lon="6.30518">
        <ele>696.4</ele>
        <time>2023-01-06T15:01:58Z</time>
      </trkpt>
      <trkpt lat="43.59746" lon="6.30516">
        <ele>695.3</ele>
        <time>2023-01-06T15:02:06Z</time>
      </trkpt>
      <trkpt lat="43.59737" lon="6.30521">
        <ele>694.2</ele>
        <time>2023-01-06T15:02:15Z</time>
      </trkpt>
      <trkpt lat="43.59728" lon="6.30525">
        <ele>693.2</ele>
        <time>2023-01-06T15:02:25Z</time>
      </trkpt>
      <trkpt lat="43.59718" lon="6.30526">
        <ele>692.7</ele>
        <time>2023-01-06T15:02:34Z</time>
      </trkpt>
      <trkpt lat="43.59709" lon="6.30529">
        <ele>692</ele>
        <time>2023-01-06T15:02:43Z</time>
      </trkpt>
      <trkpt lat="43.597" lon="6.30527">
        <ele>691.1</ele>
        <time>2023-01-06T15:02:52Z</time>
      </trkpt>
      <trkpt lat="43.59691" lon="6.30529">
        <ele>690.7</ele>
        <time>2023-01-06T15:03:02Z</time>
      </trkpt>
      <trkpt lat="43.59682" lon="6.30534">
        <ele>691</ele>
        <time>2023-01-06T15:03:11Z</time>
      </trkpt>
      <trkpt lat="43.59672" lon="6.30536">
        <ele>690.6</ele>
        <time>2023-01-06T15:03:20Z</time>
      </trkpt>
      <trkpt lat="43.59662" lon="6.30534">
        <ele>689.7</ele>
        <time>2023-01-06T15:03:28Z</time>
      </trkpt>
      <trkpt lat="43.59652" lon="6.30532">
        <ele>689.1</ele>
        <time>2023-01-06T15:03:36Z</time>
      </trkpt>
      <trkpt lat="43.59642" lon="6.30532">
        <ele>688.5</ele>
        <time>2023-01-06T15:03:44Z</time>
      </trkpt>
      <trkpt lat="43.59632" lon="6.30533">
        <ele>687.6</ele>
        <time>2023-01-06T15:03:53Z</time>
      </trkpt>
      <trkpt lat="43.59623" lon="6.30535">
        <ele>687.1</ele>
        <time>2023-01-06T15:04:02Z</time>
      </trkpt>
      <trkpt lat="43.59621" lon="6.30523">
        <ele>685.9</ele>
        <time>2023-01-06T15:04:21Z</time>
      </trkpt>
      <trkpt lat="43.59624" lon="6.30511">
        <ele>683.7</ele>
        <time>2023-01-06T15:04:34Z</time>
      </trkpt>
      <trkpt lat="43.59624" lon="6.30497">
        <ele>682.4</ele>
        <time>2023-01-06T15:04:46Z</time>
      </trkpt>
      <trkpt lat="43.59615" lon="6.30491">
        <ele>681.8</ele>
        <time>2023-01-06T15:04:57Z</time>
      </trkpt>
      <trkpt lat="43.59606" lon="6.3049">
        <ele>680.7</ele>
        <time>2023-01-06T15:05:09Z</time>
      </trkpt>
      <trkpt lat="43.59596" lon="6.30491">
        <ele>679.5</ele>
        <time>2023-01-06T15:05:22Z</time>
      </trkpt>
      <trkpt lat="43.59588" lon="6.30486">
        <ele>678.4</ele>
        <time>2023-01-06T15:05:34Z</time>
      </trkpt>
      <trkpt lat="43.59581" lon="6.30478">
        <ele>677</ele>
        <time>2023-01-06T15:05:47Z</time>
      </trkpt>
      <trkpt lat="43.59571" lon="6.30476">
        <ele>676.3</ele>
        <time>2023-01-06T15:05:57Z</time>
      </trkpt>
      <trkpt lat="43.59562" lon="6.30474">
        <ele>675.4</ele>
        <time>2023-01-06T15:06:10Z</time>
      </trkpt>
      <trkpt lat="43.59553" lon="6.30473">
        <ele>674.7</ele>
        <time>2023-01-06T15:06:20Z</time>
      </trkpt>
      <trkpt lat="43.59543" lon="6.3047">
        <ele>674.2</ele>
        <time>2023-01-06T15:06:30Z</time>
      </trkpt>
      <trkpt lat="43.59534" lon="6.30469">
        <ele>673.6</ele>
        <time>2023-01-06T15:06:39Z</time>
      </trkpt>
      <trkpt lat="43.59525" lon="6.30471">
        <ele>673.2</ele>
        <time>2023-01-06T15:06:50Z</time>
      </trkpt>
      <trkpt lat="43.59516" lon="6.30469">
        <ele>672.4</ele>
        <time>2023-01-06T15:06:59Z</time>
      </trkpt>
      <trkpt lat="43.59506" lon="6.30467">
        <ele>671.5</ele>
        <time>2023-01-06T15:07:12Z</time>
      </trkpt>
      <trkpt lat="43.59497" lon="6.30464">
        <ele>670.6</ele>
        <time>2023-01-06T15:07:23Z</time>
      </trkpt>
      <trkpt lat="43.59488" lon="6.3046">
        <ele>669.8</ele>
        <time>2023-01-06T15:07:32Z</time>
      </trkpt>
      <trkpt lat="43.59478" lon="6.30459">
        <ele>669.8</ele>
        <time>2023-01-06T15:07:51Z</time>
      </trkpt>
      <trkpt lat="43.59469" lon="6.30452">
        <ele>669.1</ele>
        <time>2023-01-06T15:08:03Z</time>
      </trkpt>
      <trkpt lat="43.59461" lon="6.30446">
        <ele>668.4</ele>
        <time>2023-01-06T15:08:13Z</time>
      </trkpt>
      <trkpt lat="43.59454" lon="6.30437">
        <ele>668</ele>
        <time>2023-01-06T15:08:32Z</time>
      </trkpt>
      <trkpt lat="43.59451" lon="6.30425">
        <ele>667.6</ele>
        <time>2023-01-06T15:08:45Z</time>
      </trkpt>
      <trkpt lat="43.59449" lon="6.30424">
        <ele>667.9</ele>
        <time>2023-01-06T15:09:02Z</time>
      </trkpt>
    </trkseg>
  </trk>
</gpx>